Carnival Spirit — 9HA3097 — position and weather

sailwx.info

Track history (hours):
 
Tides and Currents Weather Stations Pressure Air Temp Water Temp Dewpoint Dewpoint Depression Visibility Wind Speed Wind Dir Waves Ship Positions

Carnival Spirit

Last reported at 2019-Apr-24 06:00 UTC. Time now 2019-Apr-26 03:42 UTC.
Position S 24°30' E 165°30'.

Length 293 m; draft 8.5 m.

Type: Ship. MMSI: 229136000.

Wind from 160 at 42 knots

Barometer 1013.7 mb
Air temperature 23.0 ° C
Visibility: greater than 10.8 NM
Dewpoint 21.6 ° C
Water temperature 24.0 ° C

Date/timePositionNaut miles runAvg speedWind from/ knotsBaromVisibWave heightAir tempDewpointWater temp
2019-Apr-24 06:00S 24°30' E 165°30'29419.6 160 / 421013.710.8 23.021.624.0
2019-Apr-23 15:00S 27°24' E 161°06'41469.0 120 / 381016.010.8 22.019.025.0
2019-Apr-23 09:00S 28°36' E 153°24'21130.2 150 / 361020.010.8 22.019.024.0
2019-Apr-23 02:00S 30°12' E 157°00'4321.7 140 / 20 10.8 23.020.124.0
2019-Apr-23 00:00S 30°36' E 156°18'2019.6 140 / 30 10.8 23.020.124.0
2019-Apr-22 23:00S 30°48' E 156°00'20619.0 140 / 30 10.8 23.020.124.0
2019-Apr-22 12:12S 32°55' E 152°50'317.9
2019-Apr-22 12:00S 32°58' E 152°47'1017.8
2019-Apr-22 11:28S 33°03' E 152°38'817.9
2019-Apr-22 11:00S 33°08' E 152°30'917.8
2019-Apr-22 10:30S 33°13' E 152°21'918.0
2019-Apr-22 10:00S 33°19' E 152°12'2719.0
2019-Apr-22 08:34S 33°35' E 151°47'119.7
2019-Apr-22 08:30S 33°36' E 151°45'1019.9
2019-Apr-22 08:01S 33°42' E 151°36'1019.7
2019-Apr-22 07:30S 33°48' E 151°26'713.4
2019-Apr-22 07:00S 33°50' E 151°19'5 8.7
2019-Apr-22 06:28S 33°51' E 151°13'1 0.2
2019-Apr-22 03:35S 33°52' E 151°13'0 0.0
2019-Apr-22 03:29S 33°52' E 151°13'0 0.0
2019-Apr-22 02:59S 33°52' E 151°13'0 0.0
2019-Apr-22 02:29S 33°52' E 151°13'0 0.0
2019-Apr-22 01:56S 33°52' E 151°13'0 0.0
2019-Apr-22 01:29S 33°52' E 151°13'0 0.0
2019-Apr-22 00:59S 33°52' E 151°13'0 0.0
2019-Apr-22 00:29S 33°52' E 151°13'0 0.0
2019-Apr-21 23:59S 33°52' E 151°13'0 0.0
2019-Apr-21 23:29S 33°52' E 151°13'0 0.0
2019-Apr-21 22:59S 33°52' E 151°13'0 0.0
2019-Apr-21 22:29S 33°52' E 151°13'0 0.0
2019-Apr-21 21:59S 33°52' E 151°13'0 0.0
2019-Apr-21 21:29S 33°52' E 151°13'0 0.0
2019-Apr-21 20:59S 33°52' E 151°13'0 0.0
2019-Apr-21 20:30S 33°52' E 151°13'0 0.0
2019-Apr-21 20:00S 33°52' E 151°13'2 4.6
2019-Apr-21 19:30S 33°51' E 151°15'5 9.5
2019-Apr-21 19:00S 33°51' E 151°21'4 8.3
2019-Apr-21 18:30S 33°54' E 151°24'5 9.2
2019-Apr-21 18:00S 33°58' E 151°27'5 9.5
2019-Apr-21 17:30S 34°03' E 151°29'5 9.6
2019-Apr-21 17:00S 34°07' E 151°31'5 9.6
2019-Apr-21 16:30S 34°12' E 151°33'713.5
2019-Apr-21 16:00S 34°18' E 151°37'814.5
2019-Apr-21 15:29S 34°25' E 151°35'4 8.2
2019-Apr-21 15:00S 34°24' E 151°30'1 2.2 030 / 151017.010.8 23.020.123.0
2019-Apr-21 14:24S 34°23' E 151°30'615.8
2019-Apr-21 14:00S 34°17' E 151°33'6370.6
2019-Apr-21 14:00S 34°12' E 151°30'612.6 030 / 161021.010.8 23.020.123.0
2019-Apr-21 13:30S 34°10' E 151°37'612.2
2019-Apr-21 13:00S 34°05' E 151°40'611.5
2019-Apr-21 12:30S 33°60' E 151°44'611.6
2019-Apr-21 12:00S 33°55' E 151°47'4281.2
2019-Apr-21 12:00S 33°54' E 151°42'816.9 030 / 161021.010.8 23.020.123.0
2019-Apr-21 11:30S 33°50' E 151°50'612.1
2019-Apr-21 11:00S 33°44' E 151°53'611.7
2019-Apr-21 10:30S 33°39' E 151°56'2110.0
2019-Apr-21 08:22S 33°20' E 152°09'4 9.7
2019-Apr-21 07:58S 33°17' E 152°12'4 9.8
2019-Apr-21 07:30S 33°13' E 152°15'510.1
2019-Apr-21 07:00S 33°09' E 152°18'510.3
2019-Apr-21 06:30S 33°06' E 152°23'510.4
2019-Apr-21 06:00S 33°02' E 152°27'611.3
2019-Apr-21 05:30S 32°58' E 152°31'611.4
2019-Apr-21 05:00S 32°54' E 152°36'611.2
2019-Apr-21 04:29S 32°51' E 152°42'511.2
2019-Apr-21 04:00S 32°49' E 152°48'5 8.5
2019-Apr-21 03:26S 32°44' E 152°47'4 8.5
2019-Apr-21 03:00S 32°46' E 152°43'4 7.8
2019-Apr-21 02:30S 32°48' E 152°40'4 8.6
2019-Apr-21 02:00S 32°51' E 152°36'6395.8
2019-Apr-21 02:00S 32°48' E 152°30'613.1 170 / 131021.610.8 23.020.125.0
2019-Apr-21 01:30S 32°54' E 152°32'4 8.4
2019-Apr-21 01:00S 32°57' E 152°29'4 8.2
2019-Apr-21 00:30S 33°00' E 152°26'4 8.9
2019-Apr-21 00:00S 33°03' E 152°22'4 8.5
2019-Apr-20 23:30S 33°07' E 152°19'5 9.0
2019-Apr-20 23:00S 33°10' E 152°15'5372.4
2019-Apr-20 23:00S 33°06' E 152°18'918.9 170 / 131021.610.8 23.020.125.0
2019-Apr-20 22:30S 33°13' E 152°11'5 9.5
2019-Apr-20 22:00S 33°17' E 152°08'22 8.4
2019-Apr-20 19:26S 33°36' E 151°55'4 9.3
2019-Apr-20 19:00S 33°39' E 151°52'5 9.1
2019-Apr-20 18:30S 33°43' E 151°50'5 9.3
2019-Apr-20 18:00S 33°47' E 151°48'5358.5
2019-Apr-20 18:00S 33°42' E 151°48'1020.9 080 / 191020.010.8 22.019.023.0
2019-Apr-20 17:30S 33°52' E 151°45'5 9.3
2019-Apr-20 17:00S 33°56' E 151°43'5 9.8
2019-Apr-20 16:30S 34°01' E 151°41'815.3
2019-Apr-20 16:00S 34°07' E 151°36'816.1
2019-Apr-20 15:30S 34°13' E 151°29'1415.4
2019-Apr-20 14:37S 34°26' E 151°24'1117.6
2019-Apr-20 14:00S 34°36' E 151°18'13 6.5 040 / 101023.010.8 23.020.123.0
2019-Apr-20 12:00S 34°48' E 151°12'8 7.8 040 / 101023.010.8 23.020.123.0
2019-Apr-20 11:00S 34°54' E 151°06'35 7.9 040 / 101023.010.8 23.020.123.0
2019-Apr-20 06:39S 34°21' E 151°19'1 8.5
2019-Apr-20 06:30S 34°20' E 151°19'5 8.4
2019-Apr-20 05:55S 34°16' E 151°22'4 8.3
2019-Apr-20 05:24S 34°12' E 151°26'3 8.1
2019-Apr-20 05:00S 34°10' E 151°28'4 8.3
2019-Apr-20 04:30S 34°06' E 151°31'4 8.1
2019-Apr-20 04:00S 34°03' E 151°34'4 7.9
2019-Apr-20 03:30S 33°60' E 151°36'4 8.1
2019-Apr-20 03:00S 33°57' E 151°39'4 8.0
2019-Apr-20 02:30S 33°53' E 151°41'4 7.9
2019-Apr-20 02:00S 33°50' E 151°43'4 7.9
2019-Apr-20 01:30S 33°46' E 151°45'4 8.0
2019-Apr-20 01:00S 33°42' E 151°47'9 7.6
2019-Apr-19 23:52S 33°36' E 151°54'14 8.0
2019-Apr-19 22:04S 33°22' E 151°59'1 9.1
2019-Apr-19 21:59S 33°21' E 151°60'4 9.1
2019-Apr-19 21:30S 33°18' E 152°03'4 8.6
2019-Apr-19 21:00S 33°15' E 152°06'4 8.5
2019-Apr-19 20:30S 33°11' E 152°09'5 9.2
2019-Apr-19 20:00S 33°08' E 152°13'4 9.0
2019-Apr-19 19:30S 33°04' E 152°17'4 8.9
2019-Apr-19 19:00S 33°01' E 152°20'5 9.0
2019-Apr-19 18:30S 32°58' E 152°24'5 9.1
2019-Apr-19 18:00S 32°55' E 152°28'5 9.3
2019-Apr-19 17:30S 32°52' E 152°32'5 9.9
2019-Apr-19 17:00S 32°49' E 152°36'611.4
2019-Apr-19 16:31S 32°45' E 152°42'510.2
2019-Apr-19 16:00S 32°40' E 152°43'714.9
2019-Apr-19 15:30S 32°45' E 152°36'815.4
2019-Apr-19 15:00S 32°50' E 152°29'10635.0
2019-Apr-19 15:00S 32°42' E 152°36'1836.5 090 / 101021.010.8 25.022.225.0
2019-Apr-19 14:30S 32°56' E 152°23'815.4
2019-Apr-19 14:00S 33°02' E 152°18'612.6
2019-Apr-19 13:30S 33°08' E 152°16'5 9.5
2019-Apr-19 13:00S 33°13' E 152°15'5 9.1
2019-Apr-19 12:30S 33°17' E 152°12'2410.2
2019-Apr-19 10:11S 33°35' E 151°54'210.9
2019-Apr-19 09:59S 33°36' E 151°52'510.9
2019-Apr-19 09:29S 33°40' E 151°47'510.8
2019-Apr-19 09:00S 33°44' E 151°42'510.8
2019-Apr-19 08:30S 33°48' E 151°38'510.6
2019-Apr-19 08:00S 33°51' E 151°33'510.9
2019-Apr-19 07:30S 33°51' E 151°26'510.9
2019-Apr-19 07:00S 33°51' E 151°20'4 7.5
2019-Apr-19 06:30S 33°51' E 151°15'2 4.0
2019-Apr-19 05:59S 33°52' E 151°13'0 0.0
2019-Apr-19 05:29S 33°52' E 151°13'0 0.0
2019-Apr-19 04:59S 33°52' E 151°13'0 0.0
2019-Apr-19 04:29S 33°52' E 151°13'0 0.0
2019-Apr-19 03:59S 33°52' E 151°13'0 0.0
2019-Apr-19 03:29S 33°52' E 151°13'0 0.0
2019-Apr-19 02:59S 33°52' E 151°13'0 0.0
2019-Apr-19 02:29S 33°52' E 151°13'0 0.0
2019-Apr-19 01:59S 33°52' E 151°13'0 0.0
2019-Apr-19 01:29S 33°52' E 151°13'0 0.0
2019-Apr-19 00:59S 33°52' E 151°13'0 0.0
2019-Apr-19 00:26S 33°52' E 151°13'0 0.0
2019-Apr-18 23:59S 33°52' E 151°13'0 0.0
2019-Apr-18 23:29S 33°52' E 151°13'0 0.0
2019-Apr-18 23:00S 33°52' E 151°13'0 0.0
2019-Apr-18 22:30S 33°52' E 151°13'0 0.0
2019-Apr-18 22:00S 33°52' E 151°13'0 0.0
2019-Apr-18 21:30S 33°52' E 151°13'0 0.0
2019-Apr-18 21:00S 33°52' E 151°13'0 0.0
2019-Apr-18 20:30S 33°52' E 151°13'0 0.0
2019-Apr-18 20:01S 33°52' E 151°13'2 3.5
2019-Apr-18 19:30S 33°51' E 151°15'510.4
2019-Apr-18 19:00S 33°50' E 151°21'510.5
2019-Apr-18 18:31S 33°47' E 151°26'611.3
2019-Apr-18 18:01S 33°43' E 151°30'511.0
2019-Apr-18 17:30S 33°39' E 151°35'511.0
2019-Apr-18 17:00S 33°35' E 151°40'511.0
2019-Apr-18 16:30S 33°31' E 151°45'1815.4
2019-Apr-18 15:22S 33°19' E 151°60'617.2
2019-Apr-18 15:00S 33°15' E 152°05'5331.6
2019-Apr-18 15:00S 33°18' E 152°00'1429.0 100 / 51023.010.8 22.020.623.0
2019-Apr-18 14:30S 33°09' E 152°13'919.1
2019-Apr-18 14:00S 33°02' E 152°21'4218.9
2019-Apr-18 14:00S 33°00' E 152°18'1122.3 120 / 101020.010.8 24.021.126.0
2019-Apr-18 13:30S 32°56' E 152°30'1019.2
2019-Apr-18 13:00S 32°50' E 152°38'1019.3
2019-Apr-18 12:30S 32°42' E 152°46'26719.7
2019-Apr-17 23:00S 29°48' E 156°42'3919.7 120 / 151020.010.8 22.020.624.0
2019-Apr-17 21:00S 29°24' E 157°18'12320.5 160 / 191018.210.8 22.020.624.0
2019-Apr-17 15:00S 28°12' E 159°12'6416.0 120 / 251016.010.8 22.020.625.0
2019-Apr-17 11:00S 27°36' E 160°12'29017.1 120 / 201015.010.8 24.022.625.0
2019-Apr-16 18:00S 24°48' E 164°36'10216.9 150 / 201012.110.8 24.021.126.0
2019-Apr-16 12:00S 23°48' E 166°06'2020.4 130 / 25 10.8 24.022.626.0
2019-Apr-16 11:00S 23°36' E 166°24'5719.0 130 / 25 10.8 24.022.626.0
2019-Apr-16 08:00S 22°54' E 167°06'61 2.9 140 / 301010.010.8 24.022.625.0
2019-Apr-15 11:00S 22°18' E 168°00'3411.4 110 / 25 10.8 25.020.726.0
2019-Apr-15 08:00S 21°48' E 167°42'41 2.4 120 / 241009.010.8
2019-Apr-14 15:00S 21°36' E 167°00'50 7.6 130 / 251006.010.8 25.022.225.0
2019-Apr-14 08:22S 22°23' E 166°43'616.7
2019-Apr-14 08:00S 22°22' E 166°36'816.5
2019-Apr-14 07:30S 22°20' E 166°28'714.2
2019-Apr-14 07:00S 22°15' E 166°23'3 6.5
2019-Apr-14 06:30S 22°16' E 166°26'0 0.0
2019-Apr-14 06:00S 22°16' E 166°26'  
Track history (hours):
 
Tides and Currents Weather Stations Pressure Air Temp Water Temp Dewpoint Dewpoint Depression Visibility Wind Speed Wind Dir Waves Ship Positions

Carnival Spirit

Last reported at 2019-Apr-24 06:00 UTC. Time now 2019-Apr-26 03:42 UTC.
Position S 24°30' E 165°30'.

Length 293 m; draft 8.5 m.

Type: Ship. MMSI: 229136000.

Wind from 160 at 42 knots

Barometer 1013.7 mb
Air temperature 23.0 ° C
Visibility: greater than 10.8 NM
Dewpoint 21.6 ° C
Water temperature 24.0 ° C

Date/timePositionNaut miles runAvg speedWind from/ knotsBaromVisibWave heightAir tempDewpointWater temp
2019-Apr-24 06:00S 24°30' E 165°30'29419.6 160 / 421013.710.8 23.021.624.0
2019-Apr-23 15:00S 27°24' E 161°06'41469.0 120 / 381016.010.8 22.019.025.0
2019-Apr-23 09:00S 28°36' E 153°24'21130.2 150 / 361020.010.8 22.019.024.0
2019-Apr-23 02:00S 30°12' E 157°00'4321.7 140 / 20 10.8 23.020.124.0
2019-Apr-23 00:00S 30°36' E 156°18'2019.6 140 / 30 10.8 23.020.124.0
2019-Apr-22 23:00S 30°48' E 156°00'20619.0 140 / 30 10.8 23.020.124.0
2019-Apr-22 12:12S 32°55' E 152°50'317.9
2019-Apr-22 12:00S 32°58' E 152°47'1017.8
2019-Apr-22 11:28S 33°03' E 152°38'817.9
2019-Apr-22 11:00S 33°08' E 152°30'917.8
2019-Apr-22 10:30S 33°13' E 152°21'918.0
2019-Apr-22 10:00S 33°19' E 152°12'2719.0
2019-Apr-22 08:34S 33°35' E 151°47'119.7
2019-Apr-22 08:30S 33°36' E 151°45'1019.9
2019-Apr-22 08:01S 33°42' E 151°36'1019.7
2019-Apr-22 07:30S 33°48' E 151°26'713.4
2019-Apr-22 07:00S 33°50' E 151°19'5 8.7
2019-Apr-22 06:28S 33°51' E 151°13'1 0.2
2019-Apr-22 03:35S 33°52' E 151°13'0 0.0
2019-Apr-22 03:29S 33°52' E 151°13'0 0.0
2019-Apr-22 02:59S 33°52' E 151°13'0 0.0
2019-Apr-22 02:29S 33°52' E 151°13'0 0.0
2019-Apr-22 01:56S 33°52' E 151°13'0 0.0
2019-Apr-22 01:29S 33°52' E 151°13'0 0.0
2019-Apr-22 00:59S 33°52' E 151°13'0 0.0
2019-Apr-22 00:29S 33°52' E 151°13'0 0.0
2019-Apr-21 23:59S 33°52' E 151°13'0 0.0
2019-Apr-21 23:29S 33°52' E 151°13'0 0.0
2019-Apr-21 22:59S 33°52' E 151°13'0 0.0
2019-Apr-21 22:29S 33°52' E 151°13'0 0.0
2019-Apr-21 21:59S 33°52' E 151°13'0 0.0
2019-Apr-21 21:29S 33°52' E 151°13'0 0.0
2019-Apr-21 20:59S 33°52' E 151°13'0 0.0
2019-Apr-21 20:30S 33°52' E 151°13'0 0.0
2019-Apr-21 20:00S 33°52' E 151°13'2 4.6
2019-Apr-21 19:30S 33°51' E 151°15'5 9.5
2019-Apr-21 19:00S 33°51' E 151°21'4 8.3
2019-Apr-21 18:30S 33°54' E 151°24'5 9.2
2019-Apr-21 18:00S 33°58' E 151°27'5 9.5
2019-Apr-21 17:30S 34°03' E 151°29'5 9.6
2019-Apr-21 17:00S 34°07' E 151°31'5 9.6
2019-Apr-21 16:30S 34°12' E 151°33'713.5
2019-Apr-21 16:00S 34°18' E 151°37'814.5
2019-Apr-21 15:29S 34°25' E 151°35'4 8.2
2019-Apr-21 15:00S 34°24' E 151°30'1 2.2 030 / 151017.010.8 23.020.123.0
2019-Apr-21 14:24S 34°23' E 151°30'615.8
2019-Apr-21 14:00S 34°17' E 151°33'6370.6
2019-Apr-21 14:00S 34°12' E 151°30'612.6 030 / 161021.010.8 23.020.123.0
2019-Apr-21 13:30S 34°10' E 151°37'612.2
2019-Apr-21 13:00S 34°05' E 151°40'611.5
2019-Apr-21 12:30S 33°60' E 151°44'611.6
2019-Apr-21 12:00S 33°55' E 151°47'4281.2
2019-Apr-21 12:00S 33°54' E 151°42'816.9 030 / 161021.010.8 23.020.123.0
2019-Apr-21 11:30S 33°50' E 151°50'612.1
2019-Apr-21 11:00S 33°44' E 151°53'611.7
2019-Apr-21 10:30S 33°39' E 151°56'2110.0
2019-Apr-21 08:22S 33°20' E 152°09'4 9.7
2019-Apr-21 07:58S 33°17' E 152°12'4 9.8
2019-Apr-21 07:30S 33°13' E 152°15'510.1
2019-Apr-21 07:00S 33°09' E 152°18'510.3
2019-Apr-21 06:30S 33°06' E 152°23'510.4
2019-Apr-21 06:00S 33°02' E 152°27'611.3
2019-Apr-21 05:30S 32°58' E 152°31'611.4
2019-Apr-21 05:00S 32°54' E 152°36'611.2
2019-Apr-21 04:29S 32°51' E 152°42'511.2
2019-Apr-21 04:00S 32°49' E 152°48'5 8.5
2019-Apr-21 03:26S 32°44' E 152°47'4 8.5
2019-Apr-21 03:00S 32°46' E 152°43'4 7.8
2019-Apr-21 02:30S 32°48' E 152°40'4 8.6
2019-Apr-21 02:00S 32°51' E 152°36'6395.8
2019-Apr-21 02:00S 32°48' E 152°30'613.1 170 / 131021.610.8 23.020.125.0
2019-Apr-21 01:30S 32°54' E 152°32'4 8.4
2019-Apr-21 01:00S 32°57' E 152°29'4 8.2
2019-Apr-21 00:30S 33°00' E 152°26'4 8.9
2019-Apr-21 00:00S 33°03' E 152°22'4 8.5
2019-Apr-20 23:30S 33°07' E 152°19'5 9.0
2019-Apr-20 23:00S 33°10' E 152°15'5372.4
2019-Apr-20 23:00S 33°06' E 152°18'918.9 170 / 131021.610.8 23.020.125.0
2019-Apr-20 22:30S 33°13' E 152°11'5 9.5
2019-Apr-20 22:00S 33°17' E 152°08'22 8.4
2019-Apr-20 19:26S 33°36' E 151°55'4 9.3
2019-Apr-20 19:00S 33°39' E 151°52'5 9.1
2019-Apr-20 18:30S 33°43' E 151°50'5 9.3
2019-Apr-20 18:00S 33°47' E 151°48'5358.5
2019-Apr-20 18:00S 33°42' E 151°48'1020.9 080 / 191020.010.8 22.019.023.0
2019-Apr-20 17:30S 33°52' E 151°45'5 9.3
2019-Apr-20 17:00S 33°56' E 151°43'5 9.8
2019-Apr-20 16:30S 34°01' E 151°41'815.3
2019-Apr-20 16:00S 34°07' E 151°36'816.1
2019-Apr-20 15:30S 34°13' E 151°29'1415.4
2019-Apr-20 14:37S 34°26' E 151°24'1117.6
2019-Apr-20 14:00S 34°36' E 151°18'13 6.5 040 / 101023.010.8 23.020.123.0
2019-Apr-20 12:00S 34°48' E 151°12'8 7.8 040 / 101023.010.8 23.020.123.0
2019-Apr-20 11:00S 34°54' E 151°06'35 7.9 040 / 101023.010.8 23.020.123.0
2019-Apr-20 06:39S 34°21' E 151°19'1 8.5
2019-Apr-20 06:30S 34°20' E 151°19'5 8.4
2019-Apr-20 05:55S 34°16' E 151°22'4 8.3
2019-Apr-20 05:24S 34°12' E 151°26'3 8.1
2019-Apr-20 05:00S 34°10' E 151°28'4 8.3
2019-Apr-20 04:30S 34°06' E 151°31'4 8.1
2019-Apr-20 04:00S 34°03' E 151°34'4 7.9
2019-Apr-20 03:30S 33°60' E 151°36'4 8.1
2019-Apr-20 03:00S 33°57' E 151°39'4 8.0
2019-Apr-20 02:30S 33°53' E 151°41'4 7.9
2019-Apr-20 02:00S 33°50' E 151°43'4 7.9
2019-Apr-20 01:30S 33°46' E 151°45'4 8.0
2019-Apr-20 01:00S 33°42' E 151°47'9 7.6
2019-Apr-19 23:52S 33°36' E 151°54'14 8.0
2019-Apr-19 22:04S 33°22' E 151°59'1 9.1
2019-Apr-19 21:59S 33°21' E 151°60'4 9.1
2019-Apr-19 21:30S 33°18' E 152°03'4 8.6
2019-Apr-19 21:00S 33°15' E 152°06'4 8.5
2019-Apr-19 20:30S 33°11' E 152°09'5 9.2
2019-Apr-19 20:00S 33°08' E 152°13'4 9.0
2019-Apr-19 19:30S 33°04' E 152°17'4 8.9
2019-Apr-19 19:00S 33°01' E 152°20'5 9.0
2019-Apr-19 18:30S 32°58' E 152°24'5 9.1
2019-Apr-19 18:00S 32°55' E 152°28'5 9.3
2019-Apr-19 17:30S 32°52' E 152°32'5 9.9
2019-Apr-19 17:00S 32°49' E 152°36'611.4
2019-Apr-19 16:31S 32°45' E 152°42'510.2
2019-Apr-19 16:00S 32°40' E 152°43'714.9
2019-Apr-19 15:30S 32°45' E 152°36'815.4
2019-Apr-19 15:00S 32°50' E 152°29'10635.0
2019-Apr-19 15:00S 32°42' E 152°36'1836.5 090 / 101021.010.8 25.022.225.0
2019-Apr-19 14:30S 32°56' E 152°23'815.4
2019-Apr-19 14:00S 33°02' E 152°18'612.6
2019-Apr-19 13:30S 33°08' E 152°16'5 9.5
2019-Apr-19 13:00S 33°13' E 152°15'5 9.1
2019-Apr-19 12:30S 33°17' E 152°12'2410.2
2019-Apr-19 10:11S 33°35' E 151°54'210.9
2019-Apr-19 09:59S 33°36' E 151°52'510.9
2019-Apr-19 09:29S 33°40' E 151°47'510.8
2019-Apr-19 09:00S 33°44' E 151°42'510.8
2019-Apr-19 08:30S 33°48' E 151°38'510.6
2019-Apr-19 08:00S 33°51' E 151°33'510.9
2019-Apr-19 07:30S 33°51' E 151°26'510.9
2019-Apr-19 07:00S 33°51' E 151°20'4 7.5
2019-Apr-19 06:30S 33°51' E 151°15'2 4.0
2019-Apr-19 05:59S 33°52' E 151°13'0 0.0
2019-Apr-19 05:29S 33°52' E 151°13'0 0.0
2019-Apr-19 04:59S 33°52' E 151°13'0 0.0
2019-Apr-19 04:29S 33°52' E 151°13'0 0.0
2019-Apr-19 03:59S 33°52' E 151°13'0 0.0
2019-Apr-19 03:29S 33°52' E 151°13'0 0.0
2019-Apr-19 02:59S 33°52' E 151°13'0 0.0
2019-Apr-19 02:29S 33°52' E 151°13'0 0.0
2019-Apr-19 01:59S 33°52' E 151°13'0 0.0
2019-Apr-19 01:29S 33°52' E 151°13'0 0.0
2019-Apr-19 00:59S 33°52' E 151°13'0 0.0
2019-Apr-19 00:26S 33°52' E 151°13'0 0.0
2019-Apr-18 23:59S 33°52' E 151°13'0 0.0
2019-Apr-18 23:29S 33°52' E 151°13'0 0.0
2019-Apr-18 23:00S 33°52' E 151°13'0 0.0
2019-Apr-18 22:30S 33°52' E 151°13'0 0.0
2019-Apr-18 22:00S 33°52' E 151°13'0 0.0
2019-Apr-18 21:30S 33°52' E 151°13'0 0.0
2019-Apr-18 21:00S 33°52' E 151°13'0 0.0
2019-Apr-18 20:30S 33°52' E 151°13'0 0.0
2019-Apr-18 20:01S 33°52' E 151°13'2 3.5
2019-Apr-18 19:30S 33°51' E 151°15'510.4
2019-Apr-18 19:00S 33°50' E 151°21'510.5
2019-Apr-18 18:31S 33°47' E 151°26'611.3
2019-Apr-18 18:01S 33°43' E 151°30'511.0
2019-Apr-18 17:30S 33°39' E 151°35'511.0
2019-Apr-18 17:00S 33°35' E 151°40'511.0
2019-Apr-18 16:30S 33°31' E 151°45'1815.4
2019-Apr-18 15:22S 33°19' E 151°60'617.2
2019-Apr-18 15:00S 33°15' E 152°05'5331.6
2019-Apr-18 15:00S 33°18' E 152°00'1429.0 100 / 51023.010.8 22.020.623.0
2019-Apr-18 14:30S 33°09' E 152°13'919.1
2019-Apr-18 14:00S 33°02' E 152°21'4218.9
2019-Apr-18 14:00S 33°00' E 152°18'1122.3 120 / 101020.010.8 24.021.126.0
2019-Apr-18 13:30S 32°56' E 152°30'1019.2
2019-Apr-18 13:00S 32°50' E 152°38'1019.3
2019-Apr-18 12:30S 32°42' E 152°46'26719.7
2019-Apr-17 23:00S 29°48' E 156°42'3919.7 120 / 151020.010.8 22.020.624.0
2019-Apr-17 21:00S 29°24' E 157°18'12320.5 160 / 191018.210.8 22.020.624.0
2019-Apr-17 15:00S 28°12' E 159°12'6416.0 120 / 251016.010.8 22.020.625.0
2019-Apr-17 11:00S 27°36' E 160°12'29017.1 120 / 201015.010.8 24.022.625.0
2019-Apr-16 18:00S 24°48' E 164°36'10216.9 150 / 201012.110.8 24.021.126.0
2019-Apr-16 12:00S 23°48' E 166°06'2020.4 130 / 25 10.8 24.022.626.0
2019-Apr-16 11:00S 23°36' E 166°24'5719.0 130 / 25 10.8 24.022.626.0
2019-Apr-16 08:00S 22°54' E 167°06'61 2.9 140 / 301010.010.8 24.022.625.0
2019-Apr-15 11:00S 22°18' E 168°00'3411.4 110 / 25 10.8 25.020.726.0
2019-Apr-15 08:00S 21°48' E 167°42'41 2.4 120 / 241009.010.8
2019-Apr-14 15:00S 21°36' E 167°00'50 7.6 130 / 251006.010.8 25.022.225.0
2019-Apr-14 08:22S 22°23' E 166°43'616.7
2019-Apr-14 08:00S 22°22' E 166°36'816.5
2019-Apr-14 07:30S 22°20' E 166°28'714.2
2019-Apr-14 07:00S 22°15' E 166°23'3 6.5
2019-Apr-14 06:30S 22°16' E 166°26'0 0.0
2019-Apr-14 06:00S 22°16' E 166°26'  

Dump ship's entire track history